Data for 10/08/2013

Time Sea-Level Adjusted Pressure Absolute Pressure Temperature Relative Humidity Dew Point   
(mb) (inHg) (mb) (inHg) (C) (F) (%) (C) (F)
00:05 1012 29.88 841 24.83 10 50 42 -2.2 28
00:10 1012 29.88 841 24.83 9.8 49.7 43 -2 28.4
00:15 1012 29.88 841 24.83 9.6 49.3 44 -2 28.3
00:20 1012 29.88 841 24.83 9.5 49.1 45 -1.9 28.6
00:25 1012 29.88 841 24.83 9.4 48.9 45 -1.8 28.7
00:30 1012 29.88 841 24.83 9 48.2 48 -1.4 29.4
00:35 1012 29.88 841 24.83 8.7 47.6 48 -1.8 28.8
00:40 1012 29.88 841 24.83 8.8 47.8 47 -1.8 28.8
00:45 1012 29.88 841 24.83 8.8 47.9 48 -1.6 29.1
00:50 1012 29.88 841 24.83 8.6 47.5 48 -1.7 28.9
00:55 1012 29.88 841 24.83 8.6 47.5 48 -1.7 29
01:00 1012 29.88 842 24.86 8.6 47.5 47 -1.9 28.6
01:05 1012 29.88 842 24.86 8.6 47.5 49 -1.6 29.2
01:10 1013 29.91 842 24.86 8.4 47.1 50 -1.4 29.5
01:15 1013 29.91 842 24.86 8.1 46.6 52 -1.3 29.7
01:20 1013 29.91 842 24.86 7.9 46.3 52 -1.4 29.5
01:25 1013 29.91 842 24.86 7.9 46.2 52 -1.3 29.7
01:30 1013 29.91 842 24.86 7.8 46.1 51 -1.6 29.1
01:35 1013 29.91 842 24.86 7.9 46.3 51 -1.5 29.3
01:40 1013 29.91 842 24.86 7.9 46.2 53 -1.1 30
01:45 1013 29.91 842 24.86 7.7 45.8 53 -1.4 29.5
01:50 1013 29.91 842 24.86 7.7 45.8 52 -1.5 29.3
01:55 1013 29.91 842 24.86 7.7 45.8 52 -1.5 29.3
02:00 1013 29.91 842 24.86 7.6 45.6 53 -1.4 29.5
02:05 1013 29.91 842 24.86 7.5 45.5 53 -1.4 29.4
02:10 1013 29.91 842 24.86 7.5 45.5 53 -1.5 29.3
02:15 1013 29.91 842 24.86 7.6 45.8 51 -1.9 28.6
02:20 1013 29.91 842 24.86 7.8 46.1 51 -1.6 29.1
02:25 1013 29.91 842 24.86 7.7 45.9 51 -1.8 28.8
02:30 1013 29.91 842 24.86 7.7 45.8 51 -1.9 28.6
02:35 1013 29.91 842 24.86 7.7 45.9 51 -1.7 29
02:40 1013 29.91 842 24.86 7.6 45.7 50 -2 28.4
02:45 1013 29.91 842 24.86 7.7 45.8 51 -1.8 28.7
02:50 1013 29.91 842 24.86 7.6 45.6 51 -1.9 28.6
02:55 1013 29.91 842 24.86 7.6 45.7 51 -1.9 28.6
03:00 1013 29.91 842 24.86 7.6 45.7 51 -1.8 28.7
03:05 1013 29.91 842 24.86 7.6 45.6 50 -2.1 28.2
03:10 1013 29.91 842 24.86 7.6 45.8 51 -2 28.5
03:15 1013 29.91 842 24.86 7.5 45.5 51 -1.8 28.7
03:20 1013 29.91 842 24.86 7.4 45.3 51 -2.1 28.2
03:25 1013 29.91 842 24.86 7.4 45.4 51 -2 28.4
03:30 1013 29.91 842 24.86 7.3 45.2 53 -1.7 28.9
03:35 1013 29.91 842 24.86 6.9 44.5 54 -1.6 29
03:40 1013 29.91 842 24.86 6.3 43.3 57 -1.5 29.3
03:45 1013 29.91 842 24.86 5.9 42.5 58 -1.7 29
03:50 1013 29.91 842 24.86 5.7 42.2 59 -1.7 29
03:55 1013 29.91 842 24.86 5.5 42 60 -1.5 29.3
04:00 1013 29.91 842 24.86 5.2 41.4 62 -1.5 29.3
04:05 1013 29.91 842 24.86 5 41.1 62 -1.6 29.2
04:10 1013 29.91 842 24.86 4.8 40.7 63 -1.6 29.1
04:15 1013 29.91 842 24.86 4.7 40.5 63 -1.8 28.8
04:20 1013 29.91 842 24.86 4.7 40.5 63 -1.7 28.9
04:25 1013 29.91 842 24.86 4.7 40.4 63 -1.7 28.9
04:30 1013 29.91 842 24.86 4.6 40.3 63 -1.9 28.6
04:35 1013 29.91 842 24.86 4.6 40.3 63 -1.7 28.9
04:40 1013 29.91 842 24.86 4.4 39.9 64 -1.7 28.9
04:45 1013 29.91 842 24.86 4.3 39.8 65 -1.7 28.9
04:50 1013 29.91 842 24.86 4.3 39.7 65 -1.7 28.9
04:55 1013 29.91 842 24.86 4.2 39.5 65 -1.7 28.9
05:00 1013 29.91 842 24.86 4.1 39.4 65 -1.8 28.7
05:05 1013 29.91 842 24.86 4 39.3 66 -1.7 29
05:10 1013 29.91 842 24.86 4.1 39.4 65 -1.9 28.7
05:15 1013 29.91 842 24.86 4.3 39.8 64 -1.9 28.6
05:20 1013 29.91 842 24.86 4.5 40.1 63 -1.9 28.6
05:25 1013 29.91 842 24.86 4.6 40.2 63 -1.9 28.6
05:30 1013 29.91 842 24.86 4.6 40.4 62 -1.9 28.5
05:35 1013 29.91 842 24.86 4.8 40.7 62 -1.9 28.6
05:40 1013 29.91 842 24.86 4.9 40.9 61 -1.8 28.7
05:45 1013 29.91 842 24.86 5 41 61 -1.8 28.8
05:50 1013 29.91 842 24.86 4.9 40.9 63 -1.6 29.2
05:55 1013 29.91 842 24.86 4.4 39.9 68 -1 30.2
06:00 1013 29.91 842 24.86 3.7 38.7 68 -1.6 29.2
06:05 1013 29.91 842 24.86 3.7 38.7 68 -1.7 29
06:10 1013 29.91 842 24.86 3.9 39 67 -1.7 29
06:15 1013 29.91 842 24.86 4 39.2 66 -1.7 28.9
06:20 1013 29.91 842 24.86 4 39.3 67 -1.6 29.1
06:25 1013 29.91 842 24.86 4.1 39.3 67 -1.5 29.4
06:30 1013 29.91 842 24.86 4 39.1 67 -1.6 29.2
06:35 1013 29.91 842 24.86 3.9 39 68 -1.4 29.4
06:40 1013 29.91 842 24.86 3.9 38.9 67 -1.7 28.9
06:45 1013 29.91 842 24.86 4.2 39.5 65 -1.7 28.9
06:50 1013 29.91 842 24.86 4.4 39.9 65 -1.5 29.3
06:55 1013 29.91 842 24.86 4.4 39.9 66 -1.4 29.6
07:00 1013 29.91 842 24.86 4.2 39.5 68 -1.2 29.8
07:05 1013 29.91 842 24.86 3.8 38.9 69 -1.2 29.8
07:10 1013 29.91 842 24.86 3.7 38.7 69 -1.5 29.4
07:15 1013 29.91 842 24.86 4 39.2 68 -1.4 29.5
07:20 1013 29.91 842 24.86 4.2 39.5 67 -1.4 29.5
07:25 1013 29.91 842 24.86 4.2 39.6 67 -1.3 29.7
07:30 1013 29.91 842 24.86 4.2 39.5 68 -1.2 29.9
07:35 1013 29.91 842 24.86 4.5 40.1 66 -1.4 29.5
07:40 1013 29.91 842 24.86 4.9 40.9 64 -1.3 29.6
07:45 1013 29.91 842 24.86 5.2 41.4 62 -1.4 29.4
07:50 1013 29.91 842 24.86 5.5 41.9 61 -1.3 29.6
07:55 1013 29.91 842 24.86 5.8 42.5 61 -1.2 29.9
08:00 1013 29.91 842 24.86 5.9 42.6 60 -1.3 29.7
08:05 1013 29.91 842 24.86 5.9 42.7 60 -1.3 29.7
08:10 1013 29.91 842 24.86 6 42.9 59 -1.4 29.4
08:15 1013 29.91 842 24.86 6.1 43 59 -1.3 29.7
08:20 1013 29.91 842 24.86 6.1 43.1 59 -1.3 29.7
08:25 1013 29.91 842 24.86 6.1 43 59 -1.3 29.7
08:30 1013 29.91 842 24.86 6.1 43.1 60 -1.1 30
08:35 1013 29.91 842 24.86 6 42.9 61 -1 30.3
08:40 1013 29.91 842 24.86 6.2 43.2 60 -1 30.2
08:45 1013 29.91 842 24.86 6.1 43 61 -0.7 30.7
08:50 1013 29.91 842 24.86 6 42.8 60 -1.1 30
08:55 1013 29.91 842 24.86 6.1 43 61 -1 30.3
09:00 1013 29.91 842 24.86 6.2 43.1 59 -1.3 29.7
09:05 1013 29.91 842 24.86 6.2 43.1 58 -1.4 29.4
09:10 1013 29.91 842 24.86 6.6 43.8 56 -1.4 29.4
09:15 1013 29.91 842 24.86 6.7 44.1 57 -1.2 29.8
09:20 1013 29.91 842 24.86 6.6 43.8 57 -1.3 29.6
09:25 1013 29.91 842 24.86 6.5 43.7 57 -1.3 29.7
09:30 1013 29.91 842 24.86 6.5 43.6 57 -1.4 29.5
09:35 1013 29.91 842 24.86 6.5 43.7 57 -1.3 29.7
09:40 1013 29.91 842 24.86 6.7 44 54 -2 28.5
09:45 1013 29.91 842 24.86 6.8 44.2 55 -1.6 29
09:50 1013 29.91 842 24.86 6.9 44.4 54 -1.7 28.9
09:55 1013 29.91 842 24.86 6.9 44.4 54 -1.8 28.7
10:00 1013 29.91 842 24.86 7.3 45.1 52 -1.9 28.6
10:05 1013 29.91 842 24.86 7.8 46 50 -1.9 28.7
10:10 1013 29.91 842 24.86 8.3 46.9 49 -1.8 28.8
10:15 1013 29.91 842 24.86 8.3 46.9 49 -1.7 28.9
10:20 1013 29.91 842 24.86 8.6 47.5 47 -2 28.4
10:25 1013 29.91 842 24.86 8.9 48 46 -2 28.4
10:30 1013 29.91 842 24.86 9.2 48.6 44 -2.3 27.9
10:35 1013 29.91 842 24.86 9.6 49.3 44 -2 28.4
10:40 1013 29.91 842 24.86 9.3 48.7 46 -1.8 28.7
10:45 1012 29.88 842 24.86 9.4 48.9 44 -2.1 28.2
10:50 1012 29.88 842 24.86 9.6 49.4 43 -2.4 27.8
10:55 1012 29.88 842 24.86 9.9 49.8 44 -1.9 28.7
11:00 1012 29.88 842 24.86 10.1 50.2 42 -2.2 28.1
11:05 1013 29.91 842 24.86 10.5 50.8 41 -2.3 27.9
11:10 1013 29.91 842 24.86 10.6 51.1 42 -1.8 28.7
11:15 1013 29.91 842 24.86 10.6 51.2 42 -1.8 28.8
11:20 1013 29.91 842 24.86 10.8 51.4 42 -1.6 29.1
11:25 1013 29.91 842 24.86 11.2 52.1 38 -2.6 27.3
11:30 1013 29.91 842 24.86 11.2 52.2 39 -2.3 27.9
11:35 1013 29.91 842 24.86 11.1 51.9 39 -2.3 27.9
11:40 1013 29.91 842 24.86 10.8 51.4 41 -1.8 28.8
11:45 1013 29.91 842 24.86 10.8 51.5 38 -2.8 27
11:50 1012 29.88 842 24.86 11.1 52 39 -2.4 27.7
11:55 1012 29.88 842 24.86 10.5 50.9 40 -2.4 27.8
12:00 1012 29.88 842 24.86 10.1 50.3 39 -3 26.6
12:05 1012 29.88 842 24.86 10.6 51.1 39 -2.6 27.2
12:10 1012 29.88 842 24.86 10.4 50.8 40 -2.6 27.2
12:15 1012 29.88 842 24.86 10.4 50.8 40 -2.5 27.4
12:20 1012 29.88 842 24.86 11 51.9 37 -3.1 26.5
12:25 1012 29.88 842 24.86 11.1 51.9 39 -2.4 27.7
12:30 1012 29.88 841 24.83 11 51.8 37 -3.2 26.3
12:35 1012 29.88 841 24.83 11.7 53 36 -2.9 26.8
12:40 1012 29.88 841 24.83 11.7 53 36 -2.7 27.1
12:45 1012 29.88 841 24.83 12.3 54.1 35 -2.9 26.8
12:50 1012 29.88 841 24.83 12.2 53.9 35 -2.7 27.2
12:55 1012 29.88 841 24.83 12 53.7 36 -2.5 27.6
13:00 1012 29.88 841 24.83 11.8 53.2 36 -2.6 27.3
13:05 1012 29.88 841 24.83 11.5 52.6 36 -3 26.6
13:10 1012 29.88 841 24.83 11.2 52.1 38 -2.6 27.4
13:15 1012 29.88 842 24.86 11 51.8 39 -2.2 28
13:20 1012 29.88 842 24.86 11 51.8 39 -2.4 27.6
13:25 1012 29.88 842 24.86 11.4 52.5 37 -2.6 27.3
13:30 1012 29.88 842 24.86 12 53.6 38 -1.7 29
13:35 1012 29.88 842 24.86 11.1 52 40 -1.9 28.6
13:40 1012 29.88 842 24.86 10.6 51.1 42 -1.8 28.8
13:45 1012 29.88 842 24.86 10.4 50.6 43 -1.7 28.9
13:50 1012 29.88 842 24.86 10 50 44 -1.7 29
13:55 1012 29.88 842 24.86 9.7 49.4 45 -1.6 29.1
14:00 1013 29.91 842 24.86 9.7 49.4 46 -1.4 29.5
14:05 1013 29.91 842 24.86 9.6 49.2 46 -1.5 29.3
14:10 1013 29.91 842 24.86 9.5 49.2 48 -1 30.3
14:15 1013 29.91 842 24.86 9.1 48.3 50 -0.8 30.5
14:20 1013 29.91 842 24.86 8.9 48 51 -0.8 30.5
14:25 1013 29.91 842 24.86 8.9 48 51 -0.7 30.7
14:30 1013 29.91 842 24.86 8.5 47.4 51 -0.9 30.4
14:35 1013 29.91 842 24.86 8.7 47.7 51 -0.8 30.6
14:40 1013 29.91 842 24.86 8.8 47.8 52 -0.5 31.1
14:45 1013 29.91 842 24.86 8.7 47.6 53 -0.4 31.2
14:50 1013 29.91 842 24.86 8.7 47.7 52 -0.4 31.2
14:55 1013 29.91 842 24.86 8.8 47.8 51 -0.7 30.7
15:00 1013 29.91 842 24.86 9 48.2 51 -0.6 30.9
15:05 1013 29.91 842 24.86 8.7 47.7 51 -0.8 30.5
15:10 1013 29.91 842 24.86 8.4 47.1 52 -0.9 30.4
15:15 1013 29.91 842 24.86 8.5 47.3 51 -0.9 30.3
15:20 1013 29.91 842 24.86 8.7 47.7 51 -0.9 30.4
15:25 1013 29.91 842 24.86 8.9 47.9 50 -1 30.2
15:30 1013 29.91 842 24.86 8.7 47.6 54 -0.2 31.7
15:35 1013 29.91 842 24.86 8.5 47.2 52 -0.9 30.4
15:40 1013 29.91 842 24.86 8.4 47.2 52 -0.9 30.4
15:45 1013 29.91 843 24.89 8.5 47.2 52 -0.7 30.7
15:50 1013 29.91 843 24.89 8.4 47.1 52 -0.8 30.6
15:55 1013 29.91 843 24.89 8.4 47.2 53 -0.6 30.9
16:00 1013 29.91 843 24.89 8.1 46.5 53 -0.9 30.4
16:05 1013 29.91 843 24.89 8.2 46.7 52 -1 30.2
16:10 1013 29.91 843 24.89 8.3 46.9 52 -0.9 30.4
16:15 1013 29.91 843 24.89 8.3 47 52 -0.9 30.3
16:20 1013 29.91 843 24.89 8.6 47.5 52 -0.8 30.6
16:25 1014 29.94 843 24.89 8.5 47.4 50 -1.2 29.8
16:30 1014 29.94 843 24.89 8.5 47.2 50 -1.3 29.7
16:35 1014 29.94 843 24.89 8.5 47.2 50 -1.2 29.8
16:40 1014 29.94 843 24.89 8.6 47.4 49 -1.5 29.3
16:45 1014 29.94 843 24.89 8.7 47.6 49 -1.4 29.4
16:50 1014 29.94 843 24.89 8.7 47.7 49 -1.4 29.4
16:55 1014 29.94 843 24.89 8.7 47.7 47 -1.9 28.6
17:00 1014 29.94 843 24.89 8.5 47.3 47 -2.2 28.1
17:05 1014 29.94 843 24.89 8.5 47.4 46 -2.3 27.9
17:10 1014 29.94 843 24.89 8.6 47.4 46 -2.3 27.9
17:15 1014 29.94 843 24.89 8.5 47.3 47 -2.3 27.9
17:20 1014 29.94 843 24.89 8.5 47.2 46 -2.4 27.8
17:25 1014 29.94 843 24.89 8.4 47.2 46 -2.4 27.7
17:30 1014 29.94 843 24.89 8.4 47.2 46 -2.4 27.7
17:35 1014 29.94 843 24.89 8.4 47.2 46 -2.4 27.7
17:40 1014 29.94 843 24.89 8.5 47.2 46 -2.5 27.6
17:45 1014 29.94 844 24.92 8.4 47.1 46 -2.4 27.7
17:50 1014 29.94 844 24.92 8.3 47 47 -2.3 27.9
17:55 1014 29.94 844 24.92 8.2 46.8 48 -2 28.4
18:00 1015 29.97 844 24.92 8.2 46.7 46 -2.6 27.3
18:05 1015 29.97 844 24.92 8.1 46.7 49 -2 28.3
18:10 1015 29.97 844 24.92 8 46.4 49 -1.9 28.5
18:15 1015 29.97 844 24.92 8 46.3 50 -1.7 28.9
18:20 1015 29.97 844 24.92 7.9 46.2 53 -1.1 30.1
18:25 1015 29.97 844 24.92 7.6 45.7 58 -0.1 31.8
18:30 1015 29.97 844 24.92 7.3 45.2 59 -0.2 31.6
18:35 1015 29.97 844 24.92 7.2 44.9 59 -0.2 31.6
18:40 1015 29.97 844 24.92 7.1 44.9 58 -0.6 31
18:45 1015 29.97 844 24.92 7.1 44.7 60 -0.2 31.7
18:50 1015 29.97 844 24.92 6.8 44.2 60 -0.3 31.5
18:55 1015 29.97 844 24.92 6.6 43.8 60 -0.5 31.1
19:00 1015 29.97 844 24.92 6.4 43.5 59 -1.1 30.1
19:05 1015 29.97 844 24.92 6.3 43.3 61 -0.7 30.7
19:10 1015 29.97 844 24.92 6.3 43.3 59 -1 30.1
19:15 1015 29.97 844 24.92 6.2 43.2 59 -1.2 29.8
19:20 1015 29.97 844 24.92 6.1 43 56 -2 28.5
19:25 1015 29.97 844 24.92 6.3 43.3 59 -1.2 29.8
19:30 1015 29.97 845 24.95 6 42.8 61 -1 30.3
19:35 1015 29.97 845 24.95 5.7 42.2 63 -0.7 30.7
19:40 1015 29.97 845 24.95 5.4 41.8 65 -0.6 30.8
19:45 1015 29.97 845 24.95 5.3 41.5 65 -0.8 30.6
19:50 1015 29.97 845 24.95 5.2 41.3 66 -0.6 30.9
19:55 1015 29.97 845 24.95 4.9 40.9 68 -0.5 31
20:00 1015 29.97 845 24.95 4.8 40.6 69 -0.4 31.3
20:05 1015 29.97 845 24.95 4.5 40.2 71 -0.4 31.4
20:10 1015 29.97 845 24.95 4.3 39.7 73 -0.2 31.7
20:15 1016 30 845 24.95 3.7 38.6 75 -0.4 31.3
20:20 1016 30 845 24.95 3.9 39 70 -1 30.1
20:25 1016 30 845 24.95 4.2 39.5 69 -1.1 30.1
20:30 1016 30 845 24.95 4 39.2 70 -1 30.2
20:35 1016 30 845 24.95 3.9 39 71 -0.9 30.4
20:40 1016 30 845 24.95 3.7 38.6 71 -1.1 30
20:45 1016 30 845 24.95 3.6 38.6 71 -1.1 30
20:50 1016 30 845 24.95 3.7 38.6 70 -1.3 29.7
20:55 1016 30 845 24.95 3.8 38.8 69 -1.4 29.5
21:00 1016 30 845 24.95 3.7 38.6 69 -1.4 29.5
21:05 1016 30 845 24.95 3.5 38.4 70 -1.4 29.4
21:10 1016 30 845 24.95 3.3 38 71 -1.5 29.3
21:15 1016 30 845 24.95 3.1 37.6 72 -1.5 29.3
21:20 1016 30 845 24.95 2.9 37.2 73 -1.5 29.2
21:25 1016 30 845 24.95 2.8 37 72 -1.7 28.9
21:30 1016 30 845 24.95 2.8 37.1 72 -1.8 28.8
21:35 1016 30 845 24.95 2.8 37 72 -1.7 29
21:40 1016 30 845 24.95 2.7 36.8 72 -1.8 28.7
21:45 1016 30 845 24.95 2.4 36.4 74 -1.8 28.8
21:50 1016 30 845 24.95 2.2 35.9 75 -1.9 28.6
21:55 1016 30 845 24.95 2.1 35.8 75 -1.9 28.6
22:00 1016 30 845 24.95 2.1 35.7 75 -1.9 28.6
22:05 1016 30 845 24.95 2 35.6 76 -1.8 28.8
22:10 1016 30 845 24.95 2.1 35.8 76 -1.7 28.9
22:15 1016 30 845 24.95 2.6 36.7 72 -1.9 28.7
22:20 1016 30 845 24.95 3.3 37.9 70 -1.6 29
22:25 1016 30 845 24.95 3.5 38.2 69 -1.6 29.1
22:30 1016 30 845 24.95 3.6 38.5 68 -1.7 28.9
22:35 1016 30 845 24.95 3.8 38.8 67 -1.8 28.8
22:40 1016 30 845 24.95 3.7 38.7 68 -1.7 29
22:45 1016 30 845 24.95 3.6 38.4 68 -1.8 28.8
22:50 1016 30 845 24.95 3.6 38.4 67 -2 28.3
22:55 1016 30 845 24.95 3.7 38.7 66 -2 28.4
23:00 1016 30 845 24.95 3.8 38.8 66 -2 28.4
23:05 1016 30 845 24.95 3.8 38.9 65 -2.1 28.2
23:10 1016 30 845 24.95 3.9 39.1 65 -2.1 28.2
23:15 1016 30 845 24.95 3.9 39.1 65 -2.1 28.2
23:20 1016 30 845 24.95 3.7 38.7 67 -1.9 28.6
23:25 1016 30 845 24.95 3.4 38.2 67 -2 28.3
23:30 1016 30 845 24.95 3.3 38 68 -2.1 28.3
23:35 1016 30 845 24.95 3.2 37.7 69 -2 28.4
23:40 1016 30 845 24.95 3 37.5 69 -2 28.3
23:45 1016 30 845 24.95 2.9 37.3 69 -2.2 28
23:50 1016 30 845 24.95 3 37.3 68 -2.4 27.6
23:55 1016 30 845 24.95 2.9 37.2 66 -2.8 26.9
24:00 1016 30 845 24.95 3.1 37.6 65 -2.9 26.8